createdAt,value
2023-02-15T00:01:48.247Z,16.17
2023-02-15T00:04:57.244Z,14.35
2023-02-15T00:08:03.458Z,16.75
2023-02-15T00:11:10.244Z,15.10
2023-02-15T00:14:16.034Z,17.40
2023-02-15T00:17:22.267Z,17.40
2023-02-15T00:20:30.140Z,15.98
2023-02-15T00:23:35.993Z,15.60
2023-02-15T00:26:41.940Z,15.98
2023-02-15T00:29:47.675Z,15.35
2023-02-15T00:32:52.898Z,14.63
2023-02-15T00:36:03.530Z,15.68
2023-02-15T00:39:09.209Z,15.23
2023-02-15T00:42:15.449Z,15.70
2023-02-15T00:45:22.525Z,15.57
2023-02-15T00:48:28.138Z,15.60
2023-02-15T00:51:36.311Z,15.45
2023-02-15T00:54:42.776Z,14.35
2023-02-15T00:57:48.000Z,14.75
2023-02-15T01:00:53.410Z,16.58
2023-02-15T01:03:58.675Z,15.77
2023-02-15T01:07:07.232Z,16.38
2023-02-15T01:10:12.781Z,15.15
2023-02-15T01:13:21.163Z,15.65
2023-02-15T01:16:31.096Z,15.18
2023-02-15T01:19:37.156Z,14.38
2023-02-15T01:22:51.068Z,15.00
2023-02-15T01:25:56.713Z,15.18
2023-02-15T01:29:01.815Z,14.45
2023-02-15T01:32:07.632Z,15.43
2023-02-15T01:35:13.288Z,14.25
2023-02-15T01:38:21.548Z,15.02
2023-02-15T01:41:32.795Z,14.40
2023-02-15T01:44:51.419Z,14.13
2023-02-15T01:47:58.392Z,14.30
2023-02-15T01:51:05.721Z,13.57
2023-02-15T01:54:19.210Z,14.02
2023-02-15T01:57:28.006Z,14.57
2023-02-15T02:00:33.351Z,14.70
2023-02-15T02:03:45.819Z,13.75
2023-02-15T02:06:54.140Z,14.13
2023-02-15T02:10:03.061Z,13.73
2023-02-15T02:13:09.402Z,14.43
2023-02-15T02:16:20.133Z,13.57
2023-02-15T02:19:49.778Z,14.82
2023-02-15T02:23:07.784Z,15.07
2023-02-15T02:26:31.885Z,13.32
2023-02-15T02:30:00.990Z,13.60
2023-02-15T02:33:23.743Z,14.15
2023-02-15T02:36:35.785Z,14.02
2023-02-15T02:39:44.740Z,14.27
2023-02-15T02:42:53.616Z,14.00
2023-02-15T02:46:02.062Z,15.35
2023-02-15T02:49:07.684Z,13.30
2023-02-15T02:52:27.327Z,14.30
2023-02-15T02:55:38.571Z,14.15
2023-02-15T02:58:46.583Z,14.40
2023-02-15T03:02:01.283Z,13.90
2023-02-15T03:05:10.717Z,14.00
2023-02-15T03:08:22.830Z,13.63
2023-02-15T03:11:30.893Z,14.05
2023-02-15T03:14:38.628Z,13.02
2023-02-15T03:17:45.744Z,14.10
2023-02-15T03:20:52.047Z,13.43
2023-02-15T03:23:58.685Z,13.73
2023-02-15T03:27:08.361Z,13.50
2023-02-15T03:30:16.896Z,12.57
2023-02-15T03:33:25.225Z,14.18
2023-02-15T03:36:33.768Z,14.05
2023-02-15T03:39:43.327Z,14.27
2023-02-15T03:42:54.386Z,13.25
2023-02-15T03:46:03.514Z,13.85
2023-02-15T03:49:11.423Z,14.20
2023-02-15T03:52:18.874Z,15.13
2023-02-15T03:55:24.397Z,14.48
2023-02-15T03:58:44.742Z,14.32
2023-02-15T04:02:01.304Z,13.48
2023-02-15T04:05:07.045Z,15.57
2023-02-15T04:08:12.515Z,14.27
2023-02-15T04:11:15.228Z,14.60
2023-02-15T04:14:35.704Z,13.05
2023-02-15T04:21:04.101Z,14.10
2023-02-15T04:24:22.908Z,14.10
2023-02-15T04:27:27.900Z,14.07
2023-02-15T04:30:38.988Z,15.18
2023-02-15T04:33:44.948Z,15.30
2023-02-15T04:36:51.534Z,15.18
2023-02-15T04:39:56.902Z,15.30
2023-02-15T04:43:02.301Z,15.10
2023-02-15T04:46:10.424Z,14.30
2023-02-15T04:49:16.155Z,15.20
2023-02-15T04:52:21.465Z,14.57
2023-02-15T04:55:28.259Z,14.57
2023-02-15T04:58:34.321Z,14.43
2023-02-15T05:01:44.238Z,14.07
2023-02-15T05:04:49.603Z,15.07
2023-02-15T05:07:55.050Z,16.05
2023-02-15T05:11:00.304Z,14.48
2023-02-15T05:14:05.671Z,14.80
2023-02-15T05:17:13.162Z,16.52
2023-02-15T05:20:19.733Z,15.48
2023-02-15T05:23:24.636Z,14.43
2023-02-15T05:26:45.084Z,13.43
2023-02-15T05:29:50.082Z,16.55
2023-02-15T05:32:58.774Z,15.75
2023-02-15T05:36:04.084Z,14.65
2023-02-15T05:39:09.657Z,14.85
2023-02-15T05:42:14.564Z,15.77
2023-02-15T05:45:20.124Z,15.07
2023-02-15T05:48:28.714Z,14.50
2023-02-15T05:51:35.352Z,16.25
2023-02-15T05:57:54.211Z,15.05
2023-02-15T06:00:59.492Z,15.48
2023-02-15T06:10:47.376Z,16.83
2023-02-15T06:13:52.559Z,16.98
2023-02-15T06:16:58.187Z,14.30
2023-02-15T06:20:03.729Z,17.58
2023-02-15T06:23:09.005Z,15.05
2023-02-15T06:26:16.527Z,17.50
2023-02-15T06:29:22.080Z,16.55
2023-02-15T06:32:29.749Z,14.88
2023-02-15T06:35:35.726Z,14.05
2023-02-15T06:38:40.644Z,13.55
2023-02-15T06:41:54.964Z,16.05
2023-02-15T06:45:01.341Z,16.80
2023-02-15T06:48:08.095Z,15.85
2023-02-15T06:51:13.108Z,15.93
2023-02-15T06:54:18.640Z,16.02
2023-02-15T06:57:26.116Z,15.88
2023-02-15T07:00:31.345Z,15.18
2023-02-15T07:06:53.616Z,16.63
2023-02-15T07:10:06.487Z,15.83
2023-02-15T07:13:14.721Z,14.52
2023-02-15T07:16:20.288Z,15.20
2023-02-15T07:19:25.358Z,14.90
2023-02-15T07:22:31.224Z,15.80
2023-02-15T07:25:36.236Z,16.48
2023-02-15T07:28:44.018Z,15.25
2023-02-15T07:31:48.925Z,15.82
2023-02-15T07:34:54.238Z,14.15
2023-02-15T07:37:59.809Z,14.93
2023-02-15T07:41:06.460Z,15.43
2023-02-15T07:44:16.988Z,16.30
2023-02-15T07:47:24.471Z,16.80
2023-02-15T07:50:29.347Z,15.40
2023-02-15T07:53:34.984Z,17.60
2023-02-15T07:56:39.766Z,15.57
2023-02-15T07:59:47.845Z,17.60
2023-02-15T08:03:13.776Z,15.10
2023-02-15T08:06:19.205Z,16.77
2023-02-15T08:09:25.325Z,16.73
2023-02-15T08:12:31.419Z,16.67
2023-02-15T08:15:39.238Z,18.13
2023-02-15T08:18:44.612Z,16.77
2023-02-15T08:21:50.995Z,18.08
2023-02-15T08:24:56.176Z,17.60
2023-02-15T08:28:01.164Z,17.20
2023-02-15T08:31:12.776Z,18.92
2023-02-15T08:34:18.584Z,15.40
2023-02-15T08:37:23.924Z,15.52
2023-02-15T08:40:28.942Z,18.55
2023-02-15T08:43:34.957Z,18.15
2023-02-15T08:46:43.971Z,17.73
2023-02-15T08:49:49.216Z,18.52
2023-02-15T08:52:54.713Z,17.58
2023-02-15T08:56:00.957Z,15.30
2023-02-15T08:59:06.705Z,18.33
2023-02-15T09:02:13.439Z,16.45
2023-02-15T09:05:21.271Z,17.90
2023-02-15T09:08:26.758Z,16.30
2023-02-15T09:11:37.780Z,15.52
2023-02-15T09:14:43.874Z,16.48
2023-02-15T09:17:49.459Z,16.23
2023-02-15T09:20:57.514Z,14.25
2023-02-15T09:24:11.762Z,14.95
2023-02-15T09:27:17.023Z,16.52
2023-02-15T09:30:22.112Z,17.92
2023-02-15T09:33:27.676Z,16.02
2023-02-15T09:36:40.147Z,19.23
2023-02-15T09:42:58.432Z,15.27
2023-02-15T09:46:02.164Z,17.80
2023-02-15T09:49:11.795Z,17.10
2023-02-15T09:52:38.526Z,17.77
2023-02-15T09:55:52.485Z,16.25
2023-02-15T09:59:02.505Z,18.45
2023-02-15T10:02:15.034Z,16.23
2023-02-15T10:08:33.714Z,15.57
2023-02-15T10:11:50.250Z,16.27
2023-02-15T10:15:08.308Z,18.45
2023-02-15T10:18:21.266Z,17.63
2023-02-15T10:21:44.361Z,18.60
2023-02-15T10:24:56.959Z,18.40
2023-02-15T10:28:08.640Z,16.33
2023-02-15T10:31:16.786Z,13.63
2023-02-15T10:34:22.982Z,18.13
2023-02-15T10:37:38.223Z,18.27
2023-02-15T10:40:48.644Z,17.67
2023-02-15T10:44:08.918Z,19.15
2023-02-15T10:47:26.169Z,18.05
2023-02-15T10:50:37.208Z,15.55
2023-02-15T10:53:51.647Z,17.63
2023-02-15T10:57:08.743Z,17.95
2023-02-15T11:00:15.689Z,18.42
2023-02-15T11:03:35.911Z,19.10
2023-02-15T11:06:50.220Z,19.48
2023-02-15T11:09:57.649Z,17.23
2023-02-15T11:13:04.999Z,17.88
2023-02-15T11:16:12.810Z,19.33
2023-02-15T11:19:21.523Z,15.80
2023-02-15T11:22:36.549Z,19.10
2023-02-15T11:25:42.358Z,19.23
2023-02-15T11:28:52.544Z,18.42
2023-02-15T11:31:58.467Z,19.02
2023-02-15T11:35:05.383Z,19.35
2023-02-15T11:38:18.003Z,20.02
2023-02-15T11:41:25.683Z,18.50
2023-02-15T11:44:33.829Z,18.10
2023-02-15T11:47:39.199Z,17.15
2023-02-15T11:50:45.193Z,18.55
2023-02-15T11:53:53.864Z,17.33
2023-02-15T11:57:03.244Z,19.17
2023-02-15T12:00:14.779Z,19.13
2023-02-15T12:03:24.490Z,16.58
2023-02-15T12:06:33.147Z,18.40
2023-02-15T12:09:45.910Z,19.20
2023-02-15T12:12:51.163Z,18.40
2023-02-15T12:15:57.343Z,19.13
2023-02-15T12:19:03.430Z,16.95
2023-02-15T12:22:11.164Z,18.75
2023-02-15T12:25:27.584Z,18.00
2023-02-15T12:28:38.389Z,18.27
2023-02-15T12:31:48.947Z,17.88
2023-02-15T12:34:55.729Z,17.27
2023-02-15T12:38:04.434Z,18.52
2023-02-15T12:41:26.596Z,18.27
2023-02-15T12:44:33.625Z,17.52
2023-02-15T12:47:38.549Z,18.10
2023-02-15T12:50:44.718Z,18.17
2023-02-15T12:53:49.998Z,17.80
2023-02-15T12:56:59.065Z,18.60
2023-02-15T13:00:05.198Z,19.35
2023-02-15T13:03:21.022Z,18.05
2023-02-15T13:06:27.330Z,18.08
2023-02-15T13:09:41.132Z,18.27
2023-02-15T13:12:57.875Z,17.27
2023-02-15T13:16:03.335Z,18.42
2023-02-15T13:19:11.648Z,16.25
2023-02-15T13:22:19.479Z,20.00
2023-02-15T13:25:25.672Z,17.65
2023-02-15T13:28:39.313Z,17.23
2023-02-15T13:35:18.395Z,18.15
2023-02-15T13:38:47.369Z,17.35
2023-02-15T13:45:26.389Z,19.23
2023-02-15T13:52:00.544Z,18.05
2023-02-15T13:55:28.263Z,18.88
2023-02-15T13:58:54.917Z,17.95
2023-02-15T14:02:24.487Z,17.05
2023-02-15T14:05:45.826Z,19.05
2023-02-15T14:09:07.512Z,17.00
2023-02-15T14:12:25.173Z,18.20
2023-02-15T14:15:33.433Z,18.48
2023-02-15T14:18:44.801Z,18.52
2023-02-15T14:21:53.732Z,18.20
2023-02-15T14:25:09.958Z,18.40
2023-02-15T14:28:20.330Z,19.65
2023-02-15T14:31:32.288Z,19.30
2023-02-15T14:34:45.926Z,19.55
2023-02-15T14:37:54.967Z,19.27
2023-02-15T14:41:08.968Z,18.60
2023-02-15T14:44:19.826Z,18.73
2023-02-15T14:47:29.249Z,20.15
2023-02-15T14:50:50.803Z,20.70
2023-02-15T14:53:58.320Z,18.30
2023-02-15T14:57:18.008Z,19.55
2023-02-15T15:00:34.690Z,19.48
2023-02-15T15:03:40.523Z,19.15
2023-02-15T15:06:48.888Z,18.73
2023-02-15T15:10:02.517Z,20.02
2023-02-15T15:13:22.909Z,19.58
2023-02-15T15:16:31.601Z,17.73
2023-02-15T15:19:54.367Z,19.15
2023-02-15T15:23:13.969Z,20.52
2023-02-15T15:26:50.025Z,19.25
2023-02-15T15:29:58.055Z,18.50
2023-02-15T15:33:06.829Z,18.58
2023-02-15T15:36:25.439Z,20.40
2023-02-15T16:00:37.312Z,20.30
2023-02-15T16:11:01.342Z,19.57
2023-02-15T16:14:16.313Z,18.90
2023-02-15T16:17:27.970Z,19.65
2023-02-15T16:20:35.036Z,21.95
2023-02-15T16:23:57.564Z,19.02
2023-02-15T16:30:28.313Z,17.85
2023-02-15T16:33:42.889Z,21.50
2023-02-15T16:36:48.787Z,19.90
2023-02-15T16:39:55.363Z,21.00
2023-02-15T16:43:06.974Z,20.67
2023-02-15T16:46:15.781Z,20.23
2023-02-15T16:49:26.859Z,21.55
2023-02-15T16:52:33.229Z,20.52
2023-02-15T16:55:40.504Z,21.23
2023-02-15T16:58:48.374Z,22.17
2023-02-15T17:01:55.340Z,22.63
2023-02-15T17:05:21.013Z,23.15
2023-02-15T17:08:31.031Z,23.92
2023-02-15T17:11:38.645Z,22.58
2023-02-15T17:14:44.592Z,21.45
2023-02-15T17:17:50.199Z,22.02
2023-02-15T17:20:58.875Z,25.40
2023-02-15T17:24:05.739Z,22.88
2023-02-15T17:27:16.093Z,23.48
2023-02-15T17:30:28.387Z,26.15
2023-02-15T17:33:40.677Z,26.50
2023-02-15T17:37:00.661Z,24.80
2023-02-15T17:40:12.404Z,24.25
2023-02-15T17:43:17.801Z,22.83
2023-02-15T17:46:25.694Z,23.27
2023-02-15T17:49:34.952Z,24.38
2023-02-15T17:52:43.599Z,23.75
2023-02-15T17:55:49.184Z,22.38
2023-02-15T17:58:55.305Z,23.65
2023-02-15T18:02:13.250Z,24.60
2023-02-15T18:05:31.175Z,23.60
2023-02-15T18:08:51.450Z,27.75
2023-02-15T18:11:56.686Z,24.50
2023-02-15T18:15:02.428Z,26.70
2023-02-15T18:18:07.655Z,26.52
2023-02-15T18:21:15.490Z,26.45
2023-02-15T18:24:24.635Z,26.10
2023-02-15T18:27:30.573Z,26.85
2023-02-15T18:30:36.034Z,23.65
2023-02-15T18:33:43.202Z,24.08
2023-02-15T18:36:50.229Z,23.92
2023-02-15T18:39:59.419Z,24.85
2023-02-15T18:43:05.744Z,22.65
2023-02-15T18:46:10.999Z,24.52
2023-02-15T18:49:16.776Z,25.55
2023-02-15T18:52:23.719Z,22.77
2023-02-15T18:55:32.677Z,26.33
2023-02-15T18:58:38.118Z,26.63
2023-02-15T19:01:44.269Z,26.42
2023-02-15T19:04:50.148Z,24.63
2023-02-15T19:07:55.415Z,24.40
2023-02-15T19:11:04.519Z,24.42
2023-02-15T19:14:09.963Z,25.13
2023-02-15T19:17:17.337Z,25.50
2023-02-15T19:20:23.397Z,26.00
2023-02-15T19:23:28.906Z,26.30
2023-02-15T19:26:45.272Z,27.02
2023-02-15T19:29:51.859Z,26.30
2023-02-15T19:32:56.971Z,26.85
2023-02-15T19:36:03.601Z,27.25
2023-02-15T19:39:09.295Z,27.88
2023-02-15T19:42:20.377Z,26.42
2023-02-15T19:45:28.952Z,27.77
2023-02-15T19:48:35.262Z,29.00
2023-02-15T19:51:40.728Z,27.85
2023-02-15T19:54:46.664Z,22.25
2023-02-15T19:57:55.611Z,25.23
2023-02-15T20:01:02.381Z,27.25
2023-02-15T20:04:07.859Z,27.05
2023-02-15T20:07:19.393Z,23.83
2023-02-15T20:10:25.124Z,25.67
2023-02-15T20:13:35.955Z,25.73
2023-02-15T20:16:41.167Z,25.10
2023-02-15T20:19:46.588Z,26.02
2023-02-15T20:22:54.190Z,25.55
2023-02-15T20:26:01.044Z,26.20
2023-02-15T20:29:10.612Z,26.83
2023-02-15T20:32:16.314Z,25.00
2023-02-15T20:35:22.481Z,26.67
2023-02-15T20:38:29.261Z,24.85
2023-02-15T20:41:40.298Z,25.38
2023-02-15T20:44:48.587Z,17.70
2023-02-15T20:47:54.756Z,25.20
2023-02-15T20:51:01.924Z,23.20
2023-02-15T20:54:14.358Z,21.70
2023-02-15T20:57:19.684Z,23.35
2023-02-15T21:00:28.468Z,24.13
2023-02-15T21:03:34.515Z,24.67
2023-02-15T21:06:39.367Z,23.65
2023-02-15T21:09:45.079Z,24.08
2023-02-15T21:12:50.801Z,22.40
2023-02-15T21:15:59.331Z,24.35
2023-02-15T21:19:04.241Z,16.45
2023-02-15T21:22:09.476Z,26.67
2023-02-15T21:25:17.014Z,25.67
2023-02-15T21:28:23.181Z,24.85
2023-02-15T21:31:30.897Z,23.40
2023-02-15T21:34:36.250Z,26.45
2023-02-15T21:37:41.694Z,25.15
2023-02-15T21:40:47.057Z,24.92
2023-02-15T21:44:04.340Z,24.90
2023-02-15T21:47:32.540Z,22.40
2023-02-15T21:50:50.636Z,27.15
2023-02-15T21:53:56.132Z,26.73
2023-02-15T21:57:01.063Z,24.08
2023-02-15T22:00:08.674Z,26.58
2023-02-15T22:03:16.437Z,27.30
2023-02-15T22:06:22.436Z,27.60
2023-02-15T22:09:28.207Z,28.40
2023-02-15T22:12:33.437Z,25.70
2023-02-15T22:15:39.566Z,26.00
2023-02-15T22:18:49.887Z,27.67
2023-02-15T22:21:55.068Z,27.35
2023-02-15T22:25:00.778Z,30.80
2023-02-15T22:28:06.109Z,27.70
2023-02-15T22:31:15.880Z,30.42
2023-02-15T22:34:29.943Z,29.20
2023-02-15T22:37:35.493Z,30.65
2023-02-15T22:40:40.426Z,31.15
2023-02-15T22:43:47.291Z,29.02
2023-02-15T22:46:52.218Z,28.88
2023-02-15T22:50:00.619Z,30.80
2023-02-15T22:53:06.688Z,30.23
2023-02-15T22:56:14.773Z,31.20
2023-02-15T22:59:21.483Z,28.05
2023-02-15T23:02:27.027Z,31.42
2023-02-15T23:05:35.377Z,34.42
2023-02-15T23:08:40.926Z,37.28
2023-02-15T23:11:46.997Z,34.42
2023-02-15T23:14:54.374Z,31.77
2023-02-15T23:18:01.237Z,35.67
2023-02-15T23:21:13.141Z,35.63
2023-02-15T23:24:20.783Z,29.45
2023-02-15T23:27:39.627Z,35.13
2023-02-15T23:30:44.888Z,36.47
2023-02-15T23:33:51.164Z,30.00
2023-02-15T23:36:59.519Z,33.38
2023-02-15T23:40:19.328Z,30.90
2023-02-15T23:43:25.752Z,31.02
2023-02-15T23:46:37.042Z,34.03
2023-02-15T23:49:41.911Z,32.67
2023-02-15T23:52:52.683Z,33.55
2023-02-15T23:55:58.012Z,39.00
2023-02-15T23:59:03.736Z,37.38
